Main page
METAR-TAF:

METAR-TAF

Airports :

King Abdulaziz International Airport

Jeddah, Saudi Arabia

latitude: 21-42N, longitude: 039-11E, elevation: 15 m

Current weather observation

The report was made 40 minutes ago, at 13:00 UTC
Wind 9 kt from the West/Northwest
Temperature 32°C
Humidity 59%
Pressure 1007 hPa
Visibility 10 km or more
no clouds below 1500 m and no cumulonimbus

METAR: OEJN 281300Z 30009KT CAVOK 32/23 Q1007 NOSIG

Time: 16:40 (13:40 UTC)

Forecast

The report was made 2 hours and 40 minutes ago, at 11:00 UTC
Forecast valid from 28 at 12 UTC to 29 at 18 UTC
Wind 16 kt from the Northwest
Visibility: 7000 m
Few clouds at a height of 4000 ft
Becoming
from 28 at 20 UTC to 28 at 20 UTC
Wind 7 kt from the North/Northeast

TAF: OEJN 281100Z 2812/2918 32016KT 7000 FEW040 BECMG 2820/2820 03007KT

Weather observations and forecasts of more than 4000 airports (METAR and TAF reports).

The available stations are represented by yellow and red dots on the map.

Hover mouse over dot to see the name of the station.

Then click to see weather observations and forecasts.

To change the map : click on the green buttons with a black cross to zoom in, on the green button with a dash to zoom out, or on the green arrows for adjacent maps.


METAR-TAF: